Time;durP1;ratioP1;P1;durP2;ratioP2;P2;SDS_P1;SDS_P2;PMS_P1;PMS_P2;Temp;Humidity;BMP_temperature;BMP_pressure;BME280_temperature;BME280_humidity;BME280_pressure;Samples;Min_cycle;Max_cycle;Signal;HPM_P1;HPM_P2
2021/12/22 00:01:38;;;;;;;24.63;15.63;;;;;;;;;;5054109;28;20520;-70
2021/12/22 00:04:05;;;;;;;33.72;16.75;;;;;;;;;;5053996;28;20098;-70
2021/12/22 00:06:33;;;;;;;25.92;15.73;;;;;;;;;;5053787;28;20048;-70
2021/12/22 00:09:00;;;;;;;33.53;16.52;;;;;;;;;;5087935;22;20056;-73
2021/12/22 00:11:26;;;;;;;27.92;15.73;;;-0.70;99.90;;;;;;5076656;28;20051;-73
2021/12/22 00:13:52;;;;;;;27.30;15.25;;;-0.80;99.90;;;;;;5095068;28;20483;-72
2021/12/22 00:16:18;;;;;;;25.55;15.88;;;;;;;;;;5076931;28;20036;-72
2021/12/22 00:18:44;;;;;;;30.17;17.13;;;;;;;;;;5076592;28;20518;-72
2021/12/22 00:21:10;;;;;;;26.15;15.88;;;-1.00;99.90;;;;;;5076509;28;20484;-73
2021/12/22 00:23:36;;;;;;;27.27;15.90;;;;;;;;;;5076693;28;20040;-73
2021/12/22 00:26:02;;;;;;;27.10;15.70;;;;;;;;;;5076479;28;20032;-73
2021/12/22 00:28:28;;;;;;;27.42;15.75;;;;;;;;;;5076615;28;20075;-72
2021/12/22 00:30:54;;;;;;;33.53;16.90;;;;;;;;;;5076203;28;20040;-72
2021/12/22 00:33:21;;;;;;;30.05;15.32;;;-1.10;99.90;;;;;;5077842;28;20047;-72
2021/12/22 00:35:46;;;;;;;27.98;15.93;;;-1.00;99.90;;;;;;5080325;28;20143;-72
2021/12/22 00:38:14;;;;;;;28.70;14.75;;;;;;;;;;5078308;28;20529;-72
2021/12/22 00:40:41;;;;;;;29.05;14.88;;;-1.00;99.90;;;;;;5059707;28;20078;-73
2021/12/22 00:43:08;;;;;;;20.25;13.90;;;;;;;;;;5079590;28;20043;-73
2021/12/22 00:45:35;;;;;;;24.77;14.80;;;;;;;;;;5078767;28;20040;-72
2021/12/22 00:48:03;;;;;;;27.00;15.20;;;-1.20;99.90;;;;;;5077705;28;20127;-72
2021/12/22 00:50:29;;;;;;;22.00;13.32;;;;;;;;;;5075936;28;20043;-73
2021/12/22 00:52:55;;;;;;;27.77;15.57;;;;;;;;;;5076144;28;20050;-73
2021/12/22 00:55:21;;;;;;;25.83;15.15;;;;;;;;;;5076140;28;20119;-72
2021/12/22 00:57:48;;;;;;;25.52;14.13;;;;;;;;;;5076240;28;20071;-72
2021/12/22 01:00:15;;;;;;;26.85;15.38;;;-1.30;99.90;;;;;;5075586;28;20189;-73
2021/12/22 01:02:41;;;;;;;22.88;13.90;;;;;;;;;;5059429;28;20047;-72
2021/12/22 01:05:08;;;;;;;25.75;14.82;;;;;;;;;;5076030;28;20044;-73
2021/12/22 01:07:34;;;;;;;28.92;14.93;;;;;;;;;;5059173;28;20036;-72
2021/12/22 01:10:00;;;;;;;25.35;14.60;;;;;;;;;;5075382;28;20052;-73
2021/12/22 01:12:26;;;;;;;26.63;13.93;;;;;;;;;;5075776;28;20132;-72
2021/12/22 01:14:51;;;;;;;23.67;14.90;;;-1.10;99.90;;;;;;5076020;28;20132;-72
2021/12/22 01:17:17;;;;;;;23.23;14.38;;;-1.10;99.90;;;;;;5058980;28;20040;-73
2021/12/22 01:22:34;;;;;;;25.67;15.73;;;-1.20;99.90;;;;;;5075711;28;20044;-72
2021/12/22 01:25:02;;;;;;;26.70;15.80;;;;;;;;;;5058892;28;20115;-73
2021/12/22 01:27:35;;;;;;;25.80;14.35;;;-1.30;99.90;;;;;;5075732;28;20043;-72
2021/12/22 01:30:07;;;;;;;22.15;14.77;;;-1.10;99.90;;;;;;5075473;28;20533;-72
2021/12/22 01:32:33;;;;;;;25.67;15.02;;;;;;;;;;5075639;28;20036;-72
2021/12/22 01:34:59;;;;;;;23.00;14.18;;;;;;;;;;5075385;28;20032;-72
2021/12/22 01:37:26;;;;;;;25.38;15.82;;;;;;;;;;5075296;28;20036;-72
2021/12/22 01:39:52;;;;;;;25.42;15.00;;;;;;;;;;5074827;28;20124;-72
2021/12/22 01:42:18;;;;;;;23.25;12.82;;;;;;;;;;5075547;28;20080;-72
2021/12/22 01:50:31;;;;;;;23.80;13.13;;;-1.40;99.90;;;;;;5074640;28;20044;-73
2021/12/22 01:52:58;;;;;;;23.00;13.13;;;;;;;;;;5075008;28;20050;-72
2021/12/22 01:55:33;;;;;;;24.02;14.23;;;-1.30;99.90;;;;;;5074594;28;20036;-73
2021/12/22 01:58:01;;;;;;;25.63;14.80;;;-1.50;99.90;;;;;;5075340;28;20032;-72
2021/12/22 02:00:27;;;;;;;24.55;14.40;;;-1.60;99.90;;;;;;5057760;28;20032;-72
2021/12/22 02:02:55;;;;;;;26.55;14.68;;;;;;;;;;5074889;28;20048;-73
2021/12/22 02:05:21;;;;;;;23.50;14.15;;;;;;;;;;5074762;28;20575;-72
2021/12/22 02:07:49;;;;;;;25.35;14.45;;;;;;;;;;5058415;28;20071;-72
2021/12/22 02:13:26;;;;;;;24.63;14.52;;;;;;;;;;4974741;28;20073;-73
2021/12/22 02:15:52;;;;;;;27.85;14.07;;;-1.40;99.90;;;;;;5044461;28;20143;-72
2021/12/22 02:18:20;;;;;;;18.88;12.45;;;-1.40;99.90;;;;;;5074798;28;20560;-71
2021/12/22 02:20:47;;;;;;;23.60;13.05;;;;;;;;;;5074136;28;20040;-72
2021/12/22 02:23:13;;;;;;;23.02;12.90;;;-1.50;99.90;;;;;;5057905;28;20039;-73
2021/12/22 02:25:50;;;;;;;19.00;12.55;;;;;;;;;;5074359;28;20032;-72
2021/12/22 02:28:22;;;;;;;23.58;12.75;;;;;;;;;;5074409;28;20040;-72
2021/12/22 02:30:48;;;;;;;19.92;12.43;;;;;;;;;;5057444;28;20092;-72
2021/12/22 02:35:46;;;;;;;22.17;13.02;;;-1.70;99.90;;;;;;5074536;28;20040;-72
2021/12/22 02:38:16;;;;;;;20.23;12.03;;;;;;;;;;5074195;28;20082;-72
2021/12/22 02:40:43;;;;;;;19.85;12.10;;;;;;;;;;5073940;28;20043;-72
2021/12/22 02:43:09;;;;;;;26.90;14.07;;;;;;;;;;5074044;28;20044;-72
2021/12/22 02:45:36;;;;;;;21.95;12.38;;;-1.70;99.90;;;;;;5074089;28;20051;-73
2021/12/22 02:48:04;;;;;;;19.10;12.25;;;-1.80;99.90;;;;;;5057362;28;20044;-72
2021/12/22 02:50:32;;;;;;;21.55;12.52;;;;;;;;;;5073593;28;20531;-72
2021/12/22 02:53:10;;;;;;;22.17;12.23;;;-1.70;99.90;;;;;;5073956;28;20044;-72
2021/12/22 02:58:09;;;;;;;22.58;12.27;;;;;;;;;;5074188;28;20491;-72
2021/12/22 03:00:48;;;;;;;24.27;12.95;;;-1.90;99.90;;;;;;5073690;28;20075;-72
2021/12/22 03:04:04;;;;;;;31.80;15.50;;;;;;;;;;5073921;28;20039;-72
2021/12/22 03:06:06;;;;;;;19.83;11.82;;;-1.90;99.90;;;;;;5058946;28;20055;-72
2021/12/22 03:08:32;;;;;;;24.02;14.48;;;;;;;;;;5073554;28;20040;-72
2021/12/22 03:10:58;;;;;;;23.55;14.07;;;;;;;;;;5073768;28;20040;-72
2021/12/22 03:13:24;;;;;;;22.88;13.88;;;;;;;;;;5073631;28;20044;-73
2021/12/22 03:15:50;;;;;;;23.80;13.13;;;;;;;;;;5057331;28;20098;-72
2021/12/22 03:18:17;;;;;;;29.92;14.23;;;-2.00;99.90;;;;;;5073515;28;20494;-72
2021/12/22 03:20:45;;;;;;;21.38;13.05;;;;;;;;;;5073447;28;20110;-72
2021/12/22 03:23:11;;;;;;;19.92;12.77;;;;;;;;;;5073502;28;20048;-72
2021/12/22 03:25:39;;;;;;;20.08;12.35;;;;;;;;;;5073561;28;20047;-73
2021/12/22 03:28:05;;;;;;;25.35;12.57;;;;;;;;;;5073555;28;20052;-72
2021/12/22 03:30:32;;;;;;;20.52;12.52;;;-2.00;99.90;;;;;;5073226;28;20078;-72
2021/12/22 03:32:58;;;;;;;18.75;11.93;;;;;;;;;;5056577;28;20047;-72
2021/12/22 03:35:24;;;;;;;24.45;12.40;;;;;;;;;;5073675;28;20495;-72
2021/12/22 03:37:52;;;;;;;22.90;13.27;;;;;;;;;;5073440;28;20055;-72
2021/12/22 03:40:19;;;;;;;19.38;12.13;;;-2.00;99.90;;;;;;5073399;28;20051;-72
2021/12/22 03:42:45;;;;;;;21.23;13.38;;;-2.00;99.90;;;;;;5073401;28;20055;-72
2021/12/22 03:45:11;;;;;;;31.13;13.45;;;;;;;;;;5073419;28;20040;-72
2021/12/22 03:47:37;;;;;;;21.92;12.73;;;;;;;;;;5073384;28;20457;-72
2021/12/22 03:50:04;;;;;;;21.30;12.57;;;-1.90;99.90;;;;;;5056287;28;20040;-72
2021/12/22 03:52:30;;;;;;;22.58;12.63;;;;;;;;;;5073424;28;20487;-72
2021/12/22 03:54:58;;;;;;;25.50;12.73;;;-2.00;99.90;;;;;;5073578;28;20050;-73
2021/12/22 03:57:25;;;;;;;21.33;13.27;;;;;;;;;;5073364;28;20116;-72
2021/12/22 03:59:51;;;;;;;25.25;13.45;;;;;;;;;;5072861;28;20487;-73
2021/12/22 04:02:19;;;;;;;24.20;13.63;;;;;;;;;;5073238;28;20089;-73
2021/12/22 04:04:48;;;;;;;25.38;14.15;;;;;;;;;;5073333;28;20067;-73
2021/12/22 04:07:14;;;;;;;20.95;11.90;;;;;;;;;;5073387;28;20044;-72
2021/12/22 04:09:40;;;;;;;23.83;13.63;;;;;;;;;;5072705;28;20040;-72
2021/12/22 04:12:06;;;;;;;22.27;13.23;;;;;;;;;;5073295;28;20090;-72
2021/12/22 04:14:32;;;;;;;23.58;14.05;;;;;;;;;;5056342;28;20036;-72
2021/12/22 04:16:58;;;;;;;24.17;13.70;;;;;;;;;;5074032;28;20522;-73
2021/12/22 04:19:24;;;;;;;28.15;13.98;;;;;;;;;;5076444;28;20623;-72
2021/12/22 04:21:50;;;;;;;20.15;12.88;;;;;;;;;;5076862;28;20040;-72
2021/12/22 04:24:17;;;;;;;25.30;13.52;;;;;;;;;;5076969;28;20076;-72
2021/12/22 04:26:43;;;;;;;24.67;12.95;;;;;;;;;;5060044;28;20040;-72
2021/12/22 04:29:12;;;;;;;23.58;13.27;;;;;;;;;;5076311;28;20036;-72
2021/12/22 04:31:39;;;;;;;26.80;13.70;;;;;;;;;;5076759;28;20075;-73
2021/12/22 04:34:08;;;;;;;24.95;13.98;;;;;;;;;;5077826;28;20062;-72
2021/12/22 04:36:35;;;;;;;23.05;13.10;;;;;;;;;;5083773;28;20040;-73
2021/12/22 04:39:01;;;;;;;20.73;12.85;;;;;;;;;;5084885;28;20043;-72
2021/12/22 04:41:27;;;;;;;23.33;12.32;;;;;;;;;;5082005;28;20051;-73
2021/12/22 04:43:54;;;;;;;20.73;12.63;;;;;;;;;;5081761;28;20048;-73
2021/12/22 04:46:20;;;;;;;20.25;12.68;;;-1.90;99.90;;;;;;5087931;28;20048;-72
2021/12/22 04:48:46;;;;;;;20.92;12.93;;;;;;;;;;5069990;28;20069;-72
2021/12/22 04:51:25;;;;;;;24.48;13.40;;;;;;;;;;5059853;28;20044;-72
2021/12/22 04:53:53;;;;;;;24.73;13.65;;;;;;;;;;5059858;28;20418;-73
2021/12/22 04:56:19;;;;;;;25.42;14.10;;;;;;;;;;5076155;28;20082;-72
2021/12/22 04:58:45;;;;;;;24.58;14.15;;;;;;;;;;5076025;28;20043;-72
2021/12/22 05:01:11;;;;;;;26.45;14.30;;;;;;;;;;5075742;28;20506;-72
2021/12/22 05:03:37;;;;;;;26.92;14.38;;;;;;;;;;5076432;28;20129;-72
2021/12/22 05:06:03;;;;;;;23.08;13.13;;;;;;;;;;5076080;28;20491;-73
2021/12/22 05:08:29;;;;;;;22.30;13.40;;;-2.00;99.90;;;;;;5059127;28;20043;-72
2021/12/22 05:10:56;;;;;;;23.40;12.98;;;;;;;;;;5059349;28;20036;-72
2021/12/22 05:13:22;;;;;;;27.58;13.40;;;;;;;;;;5075793;28;20063;-72
2021/12/22 05:15:47;;;;;;;26.23;13.93;;;-2.20;99.90;;;;;;5075991;28;20090;-72
2021/12/22 05:20:45;;;;;;;24.85;13.18;;;;;;;;;;5075502;28;20076;-72
2021/12/22 05:23:10;;;;;;;25.70;14.57;;;-2.00;99.90;;;;;;5059063;28;20071;-72
2021/12/22 05:25:36;;;;;;;23.33;14.00;;;;;;;;;;5075567;28;20040;-72
2021/12/22 05:28:02;;;;;;;24.88;13.38;;;-1.90;99.90;;;;;;5075086;28;20469;-72
2021/12/22 05:30:28;;;;;;;25.77;13.95;;;;;;;;;;5058298;28;20403;-73
2021/12/22 05:32:55;;;;;;;24.58;13.85;;;-2.00;99.90;;;;;;5075431;28;20558;-72
2021/12/22 05:35:21;;;;;;;25.10;14.13;;;;;;;;;;5075689;28;20404;-73
2021/12/22 05:37:47;;;;;;;26.88;13.65;;;-2.20;99.90;;;;;;5075359;28;20036;-72
2021/12/22 05:40:13;;;;;;;26.15;14.02;;;;;;;;;;5074996;28;20588;-72
2021/12/22 05:42:39;;;;;;;23.55;12.50;;;;;;;;;;5075223;28;20040;-72
2021/12/22 05:45:06;;;;;;;25.85;13.63;;;;;;;;;;5075312;28;20458;-73
2021/12/22 05:47:32;;;;;;;27.13;15.07;;;-2.30;99.90;;;;;;5075216;28;20048;-72
2021/12/22 05:49:58;;;;;;;26.70;14.23;;;;;;;;;;5058183;28;20051;-72
2021/12/22 05:52:24;;;;;;;24.63;14.13;;;;;;;;;;5075049;28;20044;-72
2021/12/22 05:54:50;;;;;;;26.63;14.52;;;;;;;;;;5075196;28;20036;-72
2021/12/22 05:57:16;;;;;;;21.63;13.55;;;;;;;;;;5075046;28;20036;-72
2021/12/22 05:59:42;;;;;;;24.50;13.30;;;;;;;;;;5074714;28;20123;-72
2021/12/22 06:02:08;;;;;;;22.25;13.48;;;;;;;;;;5074917;28;20490;-73
2021/12/22 06:04:34;;;;;;;25.75;14.25;;;;;;;;;;5074952;28;20131;-72
2021/12/22 06:07:00;;;;;;;24.50;13.00;;;;;;;;;;5075034;28;20071;-72
2021/12/22 06:09:26;;;;;;;22.05;13.85;;;;;;;;;;5098717;22;20044;-66
2021/12/22 06:11:52;;;;;;;25.52;13.50;;;;;;;;;;5074629;28;20055;-66
2021/12/22 06:14:18;;;;;;;26.05;13.93;;;;;;;;;;5074549;28;20040;-66
2021/12/22 06:16:43;;;;;;;26.38;14.60;;;;;;;;;;5058019;28;20048;-66
2021/12/22 06:19:10;;;;;;;23.02;13.77;;;;;;;;;;5074629;28;20096;-66
2021/12/22 06:21:36;;;;;;;27.55;14.15;;;;;;;;;;5091264;28;20418;-66
2021/12/22 06:24:03;;;;;;;26.13;13.68;;;;;;;;;;5074358;28;20131;-66
2021/12/22 06:26:28;;;;;;;22.73;12.80;;;;;;;;;;5074438;28;20105;-66
2021/12/22 06:28:54;;;;;;;24.52;13.60;;;;;;;;;;5074249;28;20048;-68
2021/12/22 06:31:20;;;;;;;26.02;12.73;;;;;;;;;;5091091;28;20043;-69
2021/12/22 06:33:46;;;;;;;27.00;13.43;;;;;;;;;;5090969;28;20031;-68
2021/12/22 06:36:12;;;;;;;33.28;14.70;;;;;;;;;;5090948;28;20407;-67
2021/12/22 06:38:39;;;;;;;25.08;13.57;;;;;;;;;;5090895;28;20039;-66
2021/12/22 06:41:06;;;;;;;23.17;13.05;;;;;;;;;;5090792;28;20104;-66
2021/12/22 06:43:32;;;;;;;26.17;13.57;;;;;;;;;;5091019;28;20487;-67
2021/12/22 06:45:58;;;;;;;23.55;12.63;;;;;;;;;;5090728;28;20051;-69
2021/12/22 06:48:24;;;;;;;29.27;14.55;;;;;;;;;;5090651;28;20036;-69
2021/12/22 06:50:50;;;;;;;23.98;13.27;;;;;;;;;;5090648;28;20583;-66
2021/12/22 06:53:16;;;;;;;25.60;13.68;;;;;;;;;;5089779;28;20160;-69
2021/12/22 06:55:42;;;;;;;20.08;12.25;;;;;;;;;;5090602;28;20078;-69
2021/12/22 06:58:11;;;;;;;29.33;12.95;;;;;;;;;;5090797;28;20032;-72
2021/12/22 07:00:38;;;;;;;25.92;14.35;;;;;;;;;;5090333;28;20407;-65
2021/12/22 07:03:05;;;;;;;26.83;14.95;;;;;;;;;;5073767;28;20101;-68
2021/12/22 07:05:31;;;;;;;25.23;13.60;;;-2.20;99.90;;;;;;5090467;28;20043;-70
2021/12/22 07:07:57;;;;;;;25.17;12.48;;;;;;;;;;5090537;28;20054;-68
2021/12/22 07:10:23;;;;;;;28.52;13.40;;;-2.40;99.90;;;;;;5089786;28;20040;-70
2021/12/22 07:12:49;;;;;;;27.55;13.35;;;;;;;;;;5073794;28;20043;-69
2021/12/22 07:15:16;;;;;;;25.23;14.23;;;;;;;;;;5074805;28;20037;-67
2021/12/22 07:17:44;;;;;;;26.23;13.38;;;;;;;;;;5084720;28;20067;-67
2021/12/22 07:20:10;;;;;;;29.13;13.20;;;;;;;;;;5086717;28;20065;-68
2021/12/22 07:22:37;;;;;;;28.45;13.43;;;;;;;;;;5087140;28;20036;-68
2021/12/22 07:25:04;;;;;;;32.30;15.48;;;;;;;;;;5087327;28;20043;-67
2021/12/22 07:27:30;;;;;;;28.17;14.50;;;;;;;;;;5087625;28;20135;-67
2021/12/22 07:29:56;;;;;;;25.20;13.50;;;;;;;;;;5071371;28;20178;-69
2021/12/22 07:32:22;;;;;;;28.85;13.52;;;;;;;;;;5088980;28;20127;-67
2021/12/22 07:34:59;;;;;;;25.30;13.70;;;-2.30;99.90;;;;;;5088974;28;20105;-66
2021/12/22 07:37:32;;;;;;;27.73;15.85;;;;;;;;;;5090455;28;20044;-67
2021/12/22 07:39:58;;;;;;;30.85;15.68;;;;;;;;;;5089528;28;20048;-69
2021/12/22 07:42:24;;;;;;;28.27;15.40;;;;;;;;;;5090146;28;20048;-69
2021/12/22 07:44:50;;;;;;;28.25;13.80;;;-2.10;99.90;;;;;;5090228;28;20173;-68
2021/12/22 07:47:16;;;;;;;26.58;13.20;;;;;;;;;;5090152;28;20039;-69
2021/12/22 07:49:42;;;;;;;32.30;15.18;;;;;;;;;;5089957;28;20044;-70
2021/12/22 07:52:08;;;;;;;28.25;14.50;;;;;;;;;;5091443;28;20048;-67
2021/12/22 07:54:34;;;;;;;32.30;15.82;;;;;;;;;;5093911;28;20613;-71
2021/12/22 07:57:00;;;;;;;27.25;13.57;;;;;;;;;;5093783;28;20067;-70
2021/12/22 07:59:26;;;;;;;28.67;13.63;;;;;;;;;;5076488;28;20036;-70
2021/12/22 08:01:52;;;;;;;27.17;13.77;;;;;;;;;;5093967;28;20036;-69
2021/12/22 08:04:18;;;;;;;25.20;13.20;;;-2.00;99.90;;;;;;5095181;28;20093;-66
2021/12/22 08:06:44;;;;;;;35.40;14.45;;;;;;;;;;5094868;28;20379;-66
2021/12/22 08:09:10;;;;;;;25.25;13.68;;;;;;;;;;5093561;28;20495;-67
2021/12/22 08:11:36;;;;;;;35.45;16.77;;;;;;;;;;5094077;28;20525;-69
2021/12/22 08:14:01;;;;;;;29.00;14.40;;;;;;;;;;5093535;28;20040;-69
2021/12/22 08:16:27;;;;;;;25.48;14.13;;;;;;;;;;5093535;28;20058;-69
2021/12/22 08:18:53;;;;;;;26.92;14.18;;;;;;;;;;5093359;28;20127;-70
2021/12/22 08:21:19;;;;;;;24.75;12.57;;;;;;;;;;5093391;28;20097;-71
2021/12/22 08:23:45;;;;;;;28.52;14.25;;;;;;;;;;5076695;28;20036;-68
2021/12/22 08:26:11;;;;;;;23.92;12.82;;;-1.90;99.90;;;;;;5093666;28;20044;-68
2021/12/22 08:28:37;;;;;;;26.08;14.25;;;;;;;;;;5093214;28;20062;-69
2021/12/22 08:31:03;;;;;;;27.48;14.82;;;;;;;;;;5093028;28;20042;-68
2021/12/22 08:33:32;;;;;;;28.63;16.27;;;;;;;;;;5093161;28;20122;-68
2021/12/22 08:38:50;;;;;;;27.33;14.85;;;;;;;;;;5093034;28;20047;-69
2021/12/22 08:41:16;;;;;;;21.93;12.73;;;;;;;;;;5092998;28;20071;-68
2021/12/22 08:43:42;;;;;;;25.60;14.13;;;;;;;;;;5070676;28;20179;-70
2021/12/22 08:46:08;;;;;;;31.80;12.95;;;;;;;;;;5093090;28;20048;-69
2021/12/22 08:48:34;;;;;;;30.75;14.70;;;;;;;;;;5076104;28;20039;-70
2021/12/22 08:51:00;;;;;;;26.67;13.93;;;;;;;;;;5092545;28;20380;-71
2021/12/22 08:53:26;;;;;;;30.75;13.90;;;;;;;;;;5092666;28;20055;-71
2021/12/22 08:55:52;;;;;;;27.85;14.57;;;;;;;;;;5093030;28;20040;-71
2021/12/22 08:58:18;;;;;;;28.38;13.18;;;;;;;;;;5092331;28;20100;-71
2021/12/22 09:00:45;;;;;;;30.60;14.20;;;;;;;;;;5092615;28;20116;-70
2021/12/22 09:03:11;;;;;;;27.95;16.13;;;;;;;;;;5091815;28;20044;-70
2021/12/22 09:05:37;;;;;;;25.98;12.98;;;;;;;;;;5075875;28;20036;-71
2021/12/22 09:08:03;;;;;;;23.65;12.82;;;;;;;;;;5092148;28;20467;-70
2021/12/22 09:10:30;;;;;;;27.88;14.68;;;;;;;;;;5092141;28;20101;-70
2021/12/22 09:12:56;;;;;;;26.15;12.93;;;-1.40;99.90;;;;;;5075637;28;20044;-70
2021/12/22 09:15:22;;;;;;;28.52;14.15;;;;;;;;;;5092527;28;20054;-70
2021/12/22 09:17:48;;;;;;;31.00;13.13;;;;;;;;;;5092524;28;20036;-70
2021/12/22 09:20:14;;;;;;;27.05;13.88;;;;;;;;;;5092246;28;20032;-70
2021/12/22 09:22:40;;;;;;;30.33;13.98;;;;;;;;;;5075592;28;20119;-70
2021/12/22 09:25:07;;;;;;;23.60;13.65;;;;;;;;;;5075625;28;20067;-70
2021/12/22 09:27:33;;;;;;;25.52;12.60;;;;;;;;;;5092705;28;20044;-70
2021/12/22 09:29:59;;;;;;;27.10;13.90;;;;;;;;;;5092201;28;20047;-70
2021/12/22 09:32:24;;;;;;;25.77;13.77;;;-1.30;99.90;;;;;;5092264;28;20081;-70
2021/12/22 09:34:50;;;;;;;26.42;12.82;;;;;;;;;;5092261;28;20075;-70
2021/12/22 09:37:17;;;;;;;27.27;15.15;;;;;;;;;;5071808;28;20036;-70
2021/12/22 09:39:43;;;;;;;35.13;14.68;;;;;;;;;;5079598;28;20033;-70
2021/12/22 09:42:10;;;;;;;25.63;13.55;;;;;;;;;;5085696;28;20127;-70
2021/12/22 09:44:47;;;;;;;24.20;13.43;;;;;;;;;;5094271;28;20491;-70
2021/12/22 09:47:14;;;;;;;31.92;15.02;;;;;;;;;;5112067;28;20122;-70
2021/12/22 09:52:16;;;;;;;26.42;13.40;;;;;;;;;;5111342;28;20132;-70
2021/12/22 09:54:42;;;;;;;27.00;13.18;;;-0.70;99.90;;;;;;5112448;28;20523;-69
2021/12/22 09:57:08;;;;;;;28.40;12.80;;;;;;;;;;5100084;28;20044;-70
2021/12/22 09:59:35;;;;;;;26.00;14.02;;;;;;;;;;5091528;28;20058;-70
2021/12/22 10:02:01;;;;;;;27.33;12.93;;;;;;;;;;5090870;28;20056;-70
2021/12/22 10:04:27;;;;;;;26.50;13.05;;;;;;;;;;5091434;28;20218;-70
2021/12/22 10:06:54;;;;;;;28.00;12.90;;;;;;;;;;5074759;28;20051;-70
2021/12/22 10:09:24;;;;;;;27.65;13.38;;;;;;;;;;5064778;28;20506;-70
2021/12/22 10:11:50;;;;;;;26.90;13.65;;;;;;;;;;5076238;28;20127;-71
2021/12/22 10:14:26;;;;;;;29.00;14.40;;;-0.60;99.90;;;;;;5076193;28;20222;-73
2021/12/22 10:16:54;;;;;;;25.83;14.35;;;-0.60;99.90;;;;;;5087859;28;20032;-71
2021/12/22 10:19:20;;;;;;;27.50;13.88;;;;;;;;;;5083187;28;20028;-69
2021/12/22 10:22:00;;;;;;;24.42;12.77;;;;;;;;;;5070858;28;20048;-71
2021/12/22 10:24:39;;;;;;;22.05;13.80;;;-0.40;99.90;;;;;;5073358;28;20240;-70
2021/12/22 10:27:27;;;;;;;23.02;12.70;;;-0.40;99.90;;;;;;5081507;28;20032;-69
2021/12/22 10:29:53;;;;;;;25.58;13.68;;;;;;;;;;5070609;28;20044;-70
2021/12/22 10:32:19;;;;;;;28.08;13.95;;;;;;;;;;5073286;28;20063;-70
2021/12/22 10:35:03;;;;;;;32.53;15.43;;;-0.30;99.90;;;;;;5111306;28;20040;-70
2021/12/22 10:37:34;;;;;;;23.35;14.00;;;;;;;;;;5094451;28;20068;-70
2021/12/22 10:40:00;;;;;;;29.50;14.10;;;;;;;;;;5111120;28;20031;-70
2021/12/22 10:42:39;;;;;;;28.33;13.25;;;-0.30;99.90;;;;;;5061292;28;20051;-71
2021/12/22 10:45:14;;;;;;;25.55;13.80;;;0.00;99.90;;;;;;5072013;28;20438;-70
2021/12/22 10:50:35;;;;;;;25.13;13.07;;;-0.20;99.90;;;;;;5070129;28;20091;-70
2021/12/22 10:53:01;;;;;;;27.15;14.65;;;;;;;;;;5053853;28;20044;-70
2021/12/22 10:55:43;;;;;;;27.88;14.80;;;-0.20;99.90;;;;;;5070560;28;20420;-68
2021/12/22 10:58:28;;;;;;;25.90;13.68;;;;;;;;;;5070473;28;20032;-70
2021/12/22 11:01:06;;;;;;;26.77;15.23;;;;;;;;;;5069783;28;20648;-69
2021/12/22 11:03:38;;;;;;;25.73;12.68;;;-0.20;99.90;;;;;;5076864;28;20048;-69
2021/12/22 11:06:09;;;;;;;24.80;13.38;;;;;;;;;;5081246;28;20044;-70
2021/12/22 11:08:35;;;;;;;22.88;13.60;;;;;;;;;;5080993;28;20036;-71
2021/12/22 11:11:12;;;;;;;28.65;13.90;;;0.10;99.90;;;;;;5079170;28;20078;-69
2021/12/22 11:13:38;;;;;;;26.67;13.65;;;-0.10;99.90;;;;;;5090243;28;20040;-70
2021/12/22 11:16:10;;;;;;;27.05;13.35;;;;;;;;;;5090263;28;20562;-69
2021/12/22 11:18:36;;;;;;;27.55;15.05;;;;;;;;;;5073288;28;20028;-70
2021/12/22 11:21:15;;;;;;;26.52;14.13;;;-0.10;99.90;;;;;;5065748;28;20512;-72
2021/12/22 11:23:40;;;;;;;27.60;13.68;;;-0.10;99.90;;;;;;5081657;28;20128;-69
2021/12/22 11:26:07;;;;;;;32.28;16.20;;;;;;;;;;5089595;28;20130;-70
2021/12/22 11:28:34;;;;;;;26.33;13.50;;;;;;;;;;5090055;28;20044;-70
2021/12/22 11:31:02;;;;;;;28.27;13.88;;;;;;;;;;5090140;28;20036;-70
2021/12/22 11:33:30;;;;;;;29.33;14.60;;;0.20;99.90;;;;;;5100408;28;20043;-69
2021/12/22 11:35:57;;;;;;;27.70;15.05;;;;;;;;;;5081607;28;20123;-69
2021/12/22 11:38:25;;;;;;;27.27;14.23;;;0.00;99.90;;;;;;5079646;28;20697;-70
2021/12/22 11:41:02;;;;;;;31.00;16.00;;;;;;;;;;5078350;28;20415;-70
2021/12/22 11:43:28;;;;;;;27.63;14.48;;;;;;;;;;5061950;28;20039;-70
2021/12/22 11:45:55;;;;;;;28.80;15.23;;;0.20;99.90;;;;;;5063989;28;20039;-70
2021/12/22 11:48:21;;;;;;;29.33;15.25;;;0.30;99.90;;;;;;5077931;28;20040;-70
2021/12/22 11:50:48;;;;;;;28.38;14.43;;;;;;;;;;5062509;28;20495;-71
2021/12/22 11:53:14;;;;;;;26.17;14.60;;;;;;;;;;5080215;28;20068;-69
2021/12/22 11:55:41;;;;;;;27.58;14.15;;;;;;;;;;5089843;28;20040;-68
2021/12/22 11:58:22;;;;;;;28.27;13.82;;;0.30;99.90;;;;;;5089893;28;20422;-67
2021/12/22 12:00:54;;;;;;;28.40;15.27;;;0.30;99.90;;;;;;5089134;28;20036;-67
2021/12/22 12:03:28;;;;;;;30.23;15.07;;;0.30;99.90;;;;;;5091864;28;20044;-67
2021/12/22 12:06:09;;;;;;;25.40;14.50;;;;;;;;;;5082214;28;20049;-67
2021/12/22 12:08:44;;;;;;;22.60;13.55;;;;;;;;;;5078441;28;20050;-66
2021/12/22 12:11:11;;;;;;;26.98;13.55;;;;;;;;;;5087010;22;20048;-73
2021/12/22 12:13:51;;;;;;;24.63;13.30;;;;;;;;;;5086038;28;20086;-73
2021/12/22 12:22:33;;;;;;;25.85;13.02;;;0.50;99.90;;;;;;5069378;28;20052;-73
2021/12/22 12:25:05;;;;;;;26.42;13.27;;;0.50;99.90;;;;;;5069175;28;20500;-73
2021/12/22 12:27:34;;;;;;;24.80;14.07;;;0.60;99.90;;;;;;5069656;28;20048;-73
2021/12/22 12:30:21;;;;;;;20.02;12.25;;;0.50;99.90;;;;;;5069464;28;20047;-73
2021/12/22 12:32:50;;;;;;;26.75;14.45;;;;;;;;;;5046085;28;20416;-73
2021/12/22 12:35:31;;;;;;;21.63;13.30;;;;;;;;;;5033103;28;20040;-73
2021/12/22 12:38:17;;;;;;;28.30;13.88;;;0.50;99.90;;;;;;5050386;28;20569;-74
2021/12/22 12:40:57;;;;;;;24.52;12.90;;;;;;;;;;5056240;28;20048;-74
2021/12/22 12:43:44;;;;;;;24.33;12.80;;;0.70;99.90;;;;;;5071994;28;20051;-74
2021/12/22 12:46:24;;;;;;;29.20;14.60;;;;;;;;;;5054389;28;20036;-73
2021/12/22 12:48:52;;;;;;;25.38;12.85;;;0.60;99.90;;;;;;5056540;28;20040;-74
2021/12/22 12:51:18;;;;;;;28.27;15.45;;;;;;;;;;5072785;28;20047;-74
2021/12/22 12:53:49;;;;;;;27.27;14.48;;;0.50;99.90;;;;;;5071497;28;20048;-74
2021/12/22 12:56:16;;;;;;;24.40;13.38;;;;;;;;;;5072918;28;20055;-74
2021/12/22 12:58:52;;;;;;;28.33;13.85;;;;;;;;;;5066402;28;20059;-74
2021/12/22 13:01:18;;;;;;;22.02;12.77;;;;;;;;;;5071934;28;20033;-74
2021/12/22 13:03:48;;;;;;;26.17;13.30;;;0.40;99.90;;;;;;5071413;28;20046;-74
2021/12/22 13:06:14;;;;;;;23.23;13.13;;;;;;;;;;5071937;28;20526;-74
2021/12/22 13:08:40;;;;;;;23.95;12.75;;;0.50;99.90;;;;;;5072777;28;20067;-74
2021/12/22 13:11:15;;;;;;;24.33;14.13;;;0.50;99.90;;;;;;5052159;28;20495;-74
2021/12/22 13:16:24;;;;;;;24.52;12.63;;;;;;;;;;5071149;28;20143;-74
2021/12/22 13:18:50;;;;;;;26.85;12.63;;;;;;;;;;5071378;28;20523;-74
2021/12/22 13:21:24;;;;;;;26.65;13.50;;;0.60;99.90;;;;;;5071243;28;20110;-74
2021/12/22 13:23:50;;;;;;;28.48;13.65;;;0.50;99.90;;;;;;5072629;28;20059;-74
2021/12/22 13:26:18;;;;;;;25.33;13.40;;;;;;;;;;5072537;28;20044;-74
2021/12/22 13:28:44;;;;;;;24.98;14.27;;;;;;;;;;5071102;28;20056;-74
2021/12/22 13:31:10;;;;;;;23.02;13.00;;;;;;;;;;5072396;28;20040;-74
2021/12/22 13:33:38;;;;;;;22.83;12.70;;;0.30;99.90;;;;;;5081888;28;20040;-74
2021/12/22 13:36:11;;;;;;;22.55;13.85;;;0.30;99.90;;;;;;5079890;28;20075;-74
2021/12/22 13:38:37;;;;;;;;;;;;;;;;;;5089138;28;20037;-74
2021/12/22 13:41:20;;;;;;;22.40;13.20;;;0.30;99.90;;;;;;5071480;28;20428;-74
2021/12/22 13:43:52;;;;;;;27.07;12.53;;;0.30;99.90;;;;;;5068888;28;20041;-74
2021/12/22 13:46:26;;;;;;;20.95;12.02;;;;;;;;;;5087348;28;20044;-74
2021/12/22 13:49:00;;;;;;;22.00;13.27;;;0.50;99.90;;;;;;5091553;28;20044;-74
2021/12/22 13:51:38;;;;;;;25.52;12.65;;;0.40;99.90;;;;;;5091398;28;20051;-74
2021/12/22 13:54:14;;;;;;;23.92;12.48;;;0.40;99.90;;;;;;5073299;28;20044;-74
2021/12/22 13:56:41;;;;;;;24.80;13.00;;;;;;;;;;5072106;28;20055;-74
2021/12/22 13:59:13;;;;;;;27.42;12.88;;;0.40;99.90;;;;;;5071451;28;20507;-74
2021/12/22 14:01:48;;;;;;;28.85;12.88;;;0.30;99.90;;;;;;5070612;28;20036;-73
2021/12/22 14:04:19;;;;;;;22.00;12.77;;;;;;;;;;5068859;28;20446;-73
2021/12/22 14:06:54;;;;;;;28.60;14.73;;;0.20;99.90;;;;;;5070153;28;20037;-74
2021/12/22 14:09:26;;;;;;;24.38;13.45;;;0.30;99.90;;;;;;5060721;28;20087;-74
2021/12/22 14:12:08;;;;;;;24.27;13.43;;;0.20;99.90;;;;;;5034285;28;20045;-74
2021/12/22 14:14:35;;;;;;;26.58;13.23;;;;;;;;;;5051399;28;20045;-74
2021/12/22 14:17:07;;;;;;;24.73;13.60;;;0.40;99.90;;;;;;5052310;28;20126;-73
2021/12/22 14:19:34;;;;;;;25.70;13.85;;;;;;;;;;5070348;28;20044;-73
2021/12/22 14:22:06;;;;;;;24.95;13.23;;;0.40;99.90;;;;;;5071082;28;20071;-73
2021/12/22 14:24:33;;;;;;;29.00;13.55;;;;;;;;;;5053070;28;20040;-73
2021/12/22 14:27:00;;;;;;;21.77;13.00;;;0.30;99.90;;;;;;5071220;28;20040;-73